Terminal Aerodrome Forecast
Issued by NWS

Home | Current Version | Previous Version | Text Only | Print | Product List | Glossary On
Versions: 1 2 3 4 5 6 7 8 9 10 11 12
333
FTUS42 TJSJ 171138
TAFNCM
TAF
TNCM 171138Z 1712/1812 07011KT P6SM VCSH SCT018 SCT040
     FM171430 07015KT P6SM FEW022 SCT040
     FM172230 07009KT P6SM SCT020 SCT050=

USA.gov is the U.S. government's official web portal to all federal, state and local government web resources and services.